Current Weather

Chicago Executive

Wheeling, Illinois (KPWK)

Report from: Monday, August 15, 2022 7:52 PM CDT
Current time: Monday, August 15, 2022 8:33 PM CDT

Nearby weather
Weather history
Weather forecast

Temperature21.1°C (70.0°F)
Dew point14.4°C (57.9°F)
Winds 5 kts (2.6 m/s, 5.8 mph) North (10°)
Visibility10 mi. (16.1 km)
Clouds Sky clear
Altimeter30.10 in.Hg (1019 mB)
Relative humidity66 %
Density altitude736 ft. (224 m)
Sea-level pressure101.9 kPa (1019 mB, 30.09 in.Hg)
Remarks Automated weather observing station with precipitation discriminator
Flight conditions Visual Meteorological Conditions
Raw dataKPWK 160052Z 01005KT 10SM CLR 21/14 A3010 RMK AO2 SLP188 T02110144
An error has occurred. This application may no longer respond until reloaded. Reload 🗙